sensor_id;sensor_type;location;lat;lon;timestamp;pressure;altitude;pressure_sealevel;temperature;humidity
34506;BME280;20748;42.632;23.198;2022-12-16T00:02:10;91780.53;;;3.09;100.00
34506;BME280;20748;42.632;23.198;2022-12-16T00:04:46;91780.28;;;3.16;100.00
34506;BME280;20748;42.632;23.198;2022-12-16T00:07:18;91769.94;;;3.27;100.00
34506;BME280;20748;42.632;23.198;2022-12-16T00:09:50;91766.63;;;3.31;100.00
34506;BME280;20748;42.632;23.198;2022-12-16T00:12:23;91775.13;;;3.53;100.00
34506;BME280;20748;42.632;23.198;2022-12-16T00:14:56;91780.28;;;3.58;100.00
34506;BME280;20748;42.632;23.198;2022-12-16T00:17:28;91773.28;;;3.69;100.00
34506;BME280;20748;42.632;23.198;2022-12-16T00:20:01;91773.28;;;3.74;100.00
34506;BME280;20748;42.632;23.198;2022-12-16T00:22:34;91768.88;;;3.85;100.00
34506;BME280;20748;42.632;23.198;2022-12-16T00:25:07;91772.97;;;3.96;100.00
34506;BME280;20748;42.632;23.198;2022-12-16T00:27:40;91777.31;;;4.11;100.00
34506;BME280;20748;42.632;23.198;2022-12-16T00:30:13;91771.88;;;4.23;100.00
34506;BME280;20748;42.632;23.198;2022-12-16T00:32:46;91768.69;;;4.42;100.00
34506;BME280;20748;42.632;23.198;2022-12-16T00:35:18;91770.41;;;4.67;100.00
34506;BME280;20748;42.632;23.198;2022-12-16T00:37:50;91770.94;;;5.04;100.00
34506;BME280;20748;42.632;23.198;2022-12-16T00:40:23;91755.28;;;5.25;100.00
34506;BME280;20748;42.632;23.198;2022-12-16T00:42:56;91750.75;;;5.41;100.00
34506;BME280;20748;42.632;23.198;2022-12-16T00:45:29;91751.34;;;5.62;100.00
34506;BME280;20748;42.632;23.198;2022-12-16T00:48:01;91758.47;;;5.76;100.00
34506;BME280;20748;42.632;23.198;2022-12-16T00:50:34;91755.88;;;5.76;100.00
34506;BME280;20748;42.632;23.198;2022-12-16T00:53:07;91746.19;;;5.62;100.00
34506;BME280;20748;42.632;23.198;2022-12-16T00:55:39;91748.09;;;5.51;100.00
34506;BME280;20748;42.632;23.198;2022-12-16T00:58:12;91741.31;;;5.26;100.00
34506;BME280;20748;42.632;23.198;2022-12-16T01:00:45;91750.38;;;4.89;100.00
34506;BME280;20748;42.632;23.198;2022-12-16T01:03:18;91751.44;;;4.82;100.00
34506;BME280;20748;42.632;23.198;2022-12-16T01:05:54;91742.81;;;4.52;100.00
34506;BME280;20748;42.632;23.198;2022-12-16T01:08:26;91751.81;;;4.55;100.00
34506;BME280;20748;42.632;23.198;2022-12-16T01:10:59;91750.63;;;4.42;100.00
34506;BME280;20748;42.632;23.198;2022-12-16T01:13:32;91752.75;;;4.29;100.00
34506;BME280;20748;42.632;23.198;2022-12-16T01:16:06;91750.88;;;4.40;100.00
34506;BME280;20748;42.632;23.198;2022-12-16T01:18:39;91743.06;;;4.56;100.00
34506;BME280;20748;42.632;23.198;2022-12-16T01:21:13;91744.06;;;4.55;100.00
34506;BME280;20748;42.632;23.198;2022-12-16T01:23:46;91746.78;;;4.34;100.00
34506;BME280;20748;42.632;23.198;2022-12-16T01:26:19;91740.59;;;4.30;100.00
34506;BME280;20748;42.632;23.198;2022-12-16T01:28:51;91735.59;;;4.49;100.00
34506;BME280;20748;42.632;23.198;2022-12-16T01:31:27;91725.16;;;4.20;100.00
34506;BME280;20748;42.632;23.198;2022-12-16T01:33:59;91730.16;;;3.85;100.00
34506;BME280;20748;42.632;23.198;2022-12-16T01:36:32;91726.50;;;3.96;100.00
34506;BME280;20748;42.632;23.198;2022-12-16T01:39:04;91716.44;;;3.95;100.00
34506;BME280;20748;42.632;23.198;2022-12-16T01:41:37;91727.78;;;4.04;100.00
34506;BME280;20748;42.632;23.198;2022-12-16T01:44:12;91720.56;;;3.96;100.00
34506;BME280;20748;42.632;23.198;2022-12-16T01:46:49;91717.47;;;3.94;100.00
34506;BME280;20748;42.632;23.198;2022-12-16T01:49:25;91723.19;;;3.85;100.00
34506;BME280;20748;42.632;23.198;2022-12-16T01:52:01;91725.47;;;3.97;100.00
34506;BME280;20748;42.632;23.198;2022-12-16T01:54:37;91732.69;;;4.00;100.00
34506;BME280;20748;42.632;23.198;2022-12-16T01:57:12;91722.84;;;4.13;100.00
34506;BME280;20748;42.632;23.198;2022-12-16T01:59:47;91729.28;;;4.15;100.00
34506;BME280;20748;42.632;23.198;2022-12-16T02:02:22;91727.66;;;4.30;100.00
34506;BME280;20748;42.632;23.198;2022-12-16T02:04:55;91712.75;;;4.16;100.00
34506;BME280;20748;42.632;23.198;2022-12-16T02:07:52;91697.38;;;3.85;100.00
34506;BME280;20748;42.632;23.198;2022-12-16T02:10:32;91702.50;;;3.96;100.00
34506;BME280;20748;42.632;23.198;2022-12-16T02:13:16;91708.88;;;4.14;100.00
34506;BME280;20748;42.632;23.198;2022-12-16T02:15:57;91698.81;;;4.12;100.00
34506;BME280;20748;42.632;23.198;2022-12-16T02:18:47;91699.59;;;4.13;100.00
34506;BME280;20748;42.632;23.198;2022-12-16T02:21:36;91699.91;;;4.01;100.00
34506;BME280;20748;42.632;23.198;2022-12-16T02:24:50;91706.06;;;4.10;100.00
34506;BME280;20748;42.632;23.198;2022-12-16T02:27:42;91705.22;;;4.25;100.00
34506;BME280;20748;42.632;23.198;2022-12-16T02:30:42;91702.91;;;4.24;100.00
34506;BME280;20748;42.632;23.198;2022-12-16T02:33:29;91711.09;;;4.36;100.00
34506;BME280;20748;42.632;23.198;2022-12-16T02:36:10;91710.63;;;4.29;100.00
34506;BME280;20748;42.632;23.198;2022-12-16T02:38:52;91713.00;;;4.20;100.00
34506;BME280;20748;42.632;23.198;2022-12-16T02:41:35;91713.19;;;4.34;100.00
34506;BME280;20748;42.632;23.198;2022-12-16T02:44:11;91723.97;;;4.47;100.00
34506;BME280;20748;42.632;23.198;2022-12-16T02:46:52;91728.19;;;4.32;100.00
34506;BME280;20748;42.632;23.198;2022-12-16T02:49:48;91732.00;;;4.40;100.00
34506;BME280;20748;42.632;23.198;2022-12-16T02:52:22;91746.41;;;4.56;100.00
34506;BME280;20748;42.632;23.198;2022-12-16T02:54:57;91734.22;;;4.67;100.00
34506;BME280;20748;42.632;23.198;2022-12-16T02:57:59;91736.16;;;4.86;100.00
34506;BME280;20748;42.632;23.198;2022-12-16T03:00:41;91736.44;;;5.54;100.00
34506;BME280;20748;42.632;23.198;2022-12-16T03:03:25;91728.97;;;6.01;100.00
34506;BME280;20748;42.632;23.198;2022-12-16T03:06:01;91728.84;;;6.17;100.00
34506;BME280;20748;42.632;23.198;2022-12-16T03:08:38;91719.00;;;6.38;100.00
34506;BME280;20748;42.632;23.198;2022-12-16T03:11:12;91713.13;;;6.52;100.00
34506;BME280;20748;42.632;23.198;2022-12-16T03:13:48;91702.75;;;6.71;100.00
34506;BME280;20748;42.632;23.198;2022-12-16T03:16:24;91703.19;;;6.78;100.00
34506;BME280;20748;42.632;23.198;2022-12-16T03:19:02;91696.78;;;6.90;100.00
34506;BME280;20748;42.632;23.198;2022-12-16T03:21:38;91696.25;;;6.93;100.00
34506;BME280;20748;42.632;23.198;2022-12-16T03:24:13;91716.44;;;6.77;100.00
34506;BME280;20748;42.632;23.198;2022-12-16T03:26:52;91702.41;;;6.78;100.00
34506;BME280;20748;42.632;23.198;2022-12-16T03:29:36;91697.09;;;6.69;100.00
34506;BME280;20748;42.632;23.198;2022-12-16T03:32:13;91695.69;;;6.57;100.00
34506;BME280;20748;42.632;23.198;2022-12-16T03:34:51;91699.81;;;6.58;100.00
34506;BME280;20748;42.632;23.198;2022-12-16T03:37:27;91701.16;;;6.56;100.00
34506;BME280;20748;42.632;23.198;2022-12-16T03:40:03;91709.13;;;6.60;100.00
34506;BME280;20748;42.632;23.198;2022-12-16T03:42:38;91715.78;;;6.47;100.00
34506;BME280;20748;42.632;23.198;2022-12-16T03:45:15;91723.63;;;6.41;100.00
34506;BME280;20748;42.632;23.198;2022-12-16T03:47:49;91733.50;;;6.39;100.00
34506;BME280;20748;42.632;23.198;2022-12-16T03:50:25;91734.91;;;6.51;100.00
34506;BME280;20748;42.632;23.198;2022-12-16T03:53:00;91738.72;;;6.34;100.00
34506;BME280;20748;42.632;23.198;2022-12-16T03:55:32;91737.31;;;6.23;100.00
34506;BME280;20748;42.632;23.198;2022-12-16T03:58:05;91734.81;;;5.88;100.00
34506;BME280;20748;42.632;23.198;2022-12-16T04:00:37;91741.09;;;5.82;100.00
34506;BME280;20748;42.632;23.198;2022-12-16T04:03:09;91727.94;;;5.78;100.00
34506;BME280;20748;42.632;23.198;2022-12-16T04:05:44;91729.91;;;5.86;100.00
34506;BME280;20748;42.632;23.198;2022-12-16T04:08:16;91730.41;;;5.88;100.00
34506;BME280;20748;42.632;23.198;2022-12-16T04:10:50;91723.34;;;5.94;100.00
34506;BME280;20748;42.632;23.198;2022-12-16T04:13:41;91741.13;;;6.06;100.00
34506;BME280;20748;42.632;23.198;2022-12-16T04:16:31;91748.13;;;6.06;100.00
34506;BME280;20748;42.632;23.198;2022-12-16T04:19:24;91739.94;;;5.93;100.00
34506;BME280;20748;42.632;23.198;2022-12-16T04:22:18;91724.94;;;5.90;100.00
34506;BME280;20748;42.632;23.198;2022-12-16T04:25:13;91731.00;;;5.56;100.00
34506;BME280;20748;42.632;23.198;2022-12-16T04:27:46;91737.47;;;5.53;100.00
34506;BME280;20748;42.632;23.198;2022-12-16T04:30:20;91730.38;;;5.64;100.00
34506;BME280;20748;42.632;23.198;2022-12-16T04:32:54;91732.31;;;5.77;100.00
34506;BME280;20748;42.632;23.198;2022-12-16T04:35:46;91732.75;;;6.14;100.00
34506;BME280;20748;42.632;23.198;2022-12-16T04:38:37;91737.13;;;6.38;100.00
34506;BME280;20748;42.632;23.198;2022-12-16T04:41:28;91727.91;;;6.70;100.00
34506;BME280;20748;42.632;23.198;2022-12-16T04:44:19;91729.38;;;7.15;100.00
34506;BME280;20748;42.632;23.198;2022-12-16T04:47:10;91728.88;;;7.46;100.00
34506;BME280;20748;42.632;23.198;2022-12-16T04:50:01;91733.09;;;7.75;100.00
34506;BME280;20748;42.632;23.198;2022-12-16T04:53:03;91738.00;;;7.91;100.00
34506;BME280;20748;42.632;23.198;2022-12-16T04:55:54;91736.78;;;8.16;100.00
34506;BME280;20748;42.632;23.198;2022-12-16T04:58:44;91728.41;;;8.33;100.00
34506;BME280;20748;42.632;23.198;2022-12-16T05:01:35;91741.31;;;8.53;100.00
34506;BME280;20748;42.632;23.198;2022-12-16T05:04:26;91745.25;;;8.64;100.00
34506;BME280;20748;42.632;23.198;2022-12-16T05:07:16;91752.94;;;8.69;100.00
34506;BME280;20748;42.632;23.198;2022-12-16T05:10:10;91745.69;;;8.80;100.00
34506;BME280;20748;42.632;23.198;2022-12-16T05:13:01;91749.81;;;8.95;100.00
34506;BME280;20748;42.632;23.198;2022-12-16T05:15:52;91742.13;;;9.13;100.00
34506;BME280;20748;42.632;23.198;2022-12-16T05:18:42;91756.09;;;9.17;100.00
34506;BME280;20748;42.632;23.198;2022-12-16T05:21:33;91763.31;;;9.20;100.00
34506;BME280;20748;42.632;23.198;2022-12-16T05:24:23;91760.72;;;9.43;100.00
34506;BME280;20748;42.632;23.198;2022-12-16T05:27:18;91754.16;;;9.46;100.00
34506;BME280;20748;42.632;23.198;2022-12-16T05:30:10;91754.63;;;9.48;100.00
34506;BME280;20748;42.632;23.198;2022-12-16T05:33:05;91757.44;;;9.51;100.00
34506;BME280;20748;42.632;23.198;2022-12-16T05:35:55;91765.75;;;9.62;100.00
34506;BME280;20748;42.632;23.198;2022-12-16T05:38:46;91768.53;;;9.66;100.00
34506;BME280;20748;42.632;23.198;2022-12-16T05:41:36;91764.09;;;9.66;100.00
34506;BME280;20748;42.632;23.198;2022-12-16T05:44:27;91767.97;;;9.78;100.00
34506;BME280;20748;42.632;23.198;2022-12-16T05:47:18;91765.38;;;9.78;100.00
34506;BME280;20748;42.632;23.198;2022-12-16T05:50:14;91758.03;;;9.80;100.00
34506;BME280;20748;42.632;23.198;2022-12-16T05:53:12;91754.91;;;10.01;100.00
34506;BME280;20748;42.632;23.198;2022-12-16T05:56:04;91757.16;;;10.25;100.00
34506;BME280;20748;42.632;23.198;2022-12-16T05:58:55;91778.56;;;10.45;100.00
34506;BME280;20748;42.632;23.198;2022-12-16T06:01:45;91780.13;;;10.46;100.00
34506;BME280;20748;42.632;23.198;2022-12-16T06:04:36;91795.50;;;10.56;100.00
34506;BME280;20748;42.632;23.198;2022-12-16T06:07:27;91804.28;;;10.69;100.00
34506;BME280;20748;42.632;23.198;2022-12-16T06:10:18;91803.38;;;10.83;100.00
34506;BME280;20748;42.632;23.198;2022-12-16T06:13:08;91799.94;;;11.05;100.00
34506;BME280;20748;42.632;23.198;2022-12-16T06:15:58;91801.13;;;11.08;100.00
34506;BME280;20748;42.632;23.198;2022-12-16T06:18:49;91820.03;;;11.13;100.00
34506;BME280;20748;42.632;23.198;2022-12-16T06:21:40;91808.22;;;11.07;100.00
34506;BME280;20748;42.632;23.198;2022-12-16T06:24:31;91808.50;;;11.06;100.00
34506;BME280;20748;42.632;23.198;2022-12-16T06:27:22;91806.34;;;11.08;100.00
34506;BME280;20748;42.632;23.198;2022-12-16T06:30:13;91800.22;;;11.12;100.00
34506;BME280;20748;42.632;23.198;2022-12-16T06:33:03;91801.16;;;11.25;100.00
34506;BME280;20748;42.632;23.198;2022-12-16T06:35:53;91782.25;;;11.28;100.00
34506;BME280;20748;42.632;23.198;2022-12-16T06:38:44;91797.00;;;11.33;100.00
34506;BME280;20748;42.632;23.198;2022-12-16T06:41:35;91782.72;;;11.31;100.00
34506;BME280;20748;42.632;23.198;2022-12-16T06:44:26;91788.88;;;11.52;100.00
34506;BME280;20748;42.632;23.198;2022-12-16T06:47:16;91778.41;;;11.61;100.00
34506;BME280;20748;42.632;23.198;2022-12-16T06:50:07;91791.59;;;11.82;100.00
34506;BME280;20748;42.632;23.198;2022-12-16T06:52:58;91799.59;;;11.86;100.00
34506;BME280;20748;42.632;23.198;2022-12-16T06:55:49;91780.19;;;11.96;100.00
34506;BME280;20748;42.632;23.198;2022-12-16T06:58:40;91776.03;;;11.95;100.00
34506;BME280;20748;42.632;23.198;2022-12-16T07:01:31;91786.97;;;11.97;100.00
34506;BME280;20748;42.632;23.198;2022-12-16T07:04:22;91794.47;;;11.99;100.00
34506;BME280;20748;42.632;23.198;2022-12-16T07:07:13;91809.56;;;12.11;100.00
34506;BME280;20748;42.632;23.198;2022-12-16T07:10:04;91810.16;;;12.16;100.00
34506;BME280;20748;42.632;23.198;2022-12-16T07:12:56;91796.34;;;12.16;100.00
34506;BME280;20748;42.632;23.198;2022-12-16T07:15:47;91814.19;;;12.05;100.00
34506;BME280;20748;42.632;23.198;2022-12-16T07:18:37;91807.88;;;11.97;100.00
34506;BME280;20748;42.632;23.198;2022-12-16T07:21:24;91813.41;;;12.22;100.00
34506;BME280;20748;42.632;23.198;2022-12-16T07:24:14;91803.47;;;11.53;100.00
34506;BME280;20748;42.632;23.198;2022-12-16T07:27:05;91811.00;;;11.20;100.00
34506;BME280;20748;42.632;23.198;2022-12-16T07:29:56;91810.94;;;10.84;100.00
34506;BME280;20748;42.632;23.198;2022-12-16T07:32:49;91813.44;;;11.87;100.00
34506;BME280;20748;42.632;23.198;2022-12-16T07:35:41;91832.03;;;12.12;100.00
34506;BME280;20748;42.632;23.198;2022-12-16T07:38:31;91830.44;;;12.37;99.64
34506;BME280;20748;42.632;23.198;2022-12-16T07:41:22;91814.31;;;12.65;96.10
34506;BME280;20748;42.632;23.198;2022-12-16T07:44:13;91813.31;;;12.48;100.00
34506;BME280;20748;42.632;23.198;2022-12-16T07:47:04;91820.56;;;12.34;100.00
34506;BME280;20748;42.632;23.198;2022-12-16T07:49:55;91818.75;;;12.34;100.00
34506;BME280;20748;42.632;23.198;2022-12-16T07:52:53;91803.84;;;12.26;100.00
34506;BME280;20748;42.632;23.198;2022-12-16T07:55:44;91825.50;;;12.35;100.00
34506;BME280;20748;42.632;23.198;2022-12-16T07:58:35;91827.97;;;12.32;100.00
34506;BME280;20748;42.632;23.198;2022-12-16T08:01:28;91833.69;;;12.16;100.00
34506;BME280;20748;42.632;23.198;2022-12-16T08:04:19;91816.75;;;12.22;100.00
34506;BME280;20748;42.632;23.198;2022-12-16T08:07:10;91844.72;;;12.48;100.00
34506;BME280;20748;42.632;23.198;2022-12-16T08:10:00;91824.41;;;12.75;100.00
34506;BME280;20748;42.632;23.198;2022-12-16T08:12:51;91836.13;;;12.78;100.00
34506;BME280;20748;42.632;23.198;2022-12-16T08:15:41;91824.25;;;12.81;99.95
34506;BME280;20748;42.632;23.198;2022-12-16T08:18:32;91816.19;;;13.16;93.58
34506;BME280;20748;42.632;23.198;2022-12-16T08:21:24;91812.63;;;13.51;92.66
34506;BME280;20748;42.632;23.198;2022-12-16T08:24:14;91813.16;;;13.78;90.50
34506;BME280;20748;42.632;23.198;2022-12-16T08:27:05;91835.09;;;14.07;86.25
34506;BME280;20748;42.632;23.198;2022-12-16T08:29:55;91815.59;;;14.29;86.68
34506;BME280;20748;42.632;23.198;2022-12-16T08:32:46;91815.41;;;14.47;84.71
34506;BME280;20748;42.632;23.198;2022-12-16T08:35:50;91818.59;;;14.65;82.10
34506;BME280;20748;42.632;23.198;2022-12-16T08:38:40;91814.50;;;14.76;80.37
34506;BME280;20748;42.632;23.198;2022-12-16T08:41:31;91816.34;;;14.88;79.91
34506;BME280;20748;42.632;23.198;2022-12-16T08:44:22;91807.47;;;14.93;78.44
34506;BME280;20748;42.632;23.198;2022-12-16T08:47:13;91821.81;;;14.96;78.63
34506;BME280;20748;42.632;23.198;2022-12-16T08:50:04;91797.38;;;15.08;70.33
34506;BME280;20748;42.632;23.198;2022-12-16T08:52:55;91799.16;;;15.16;67.05
34506;BME280;20748;42.632;23.198;2022-12-16T08:55:55;91799.91;;;15.16;65.98
34506;BME280;20748;42.632;23.198;2022-12-16T08:58:45;91793.53;;;15.17;66.26
34506;BME280;20748;42.632;23.198;2022-12-16T09:01:36;91786.97;;;15.24;64.63
34506;BME280;20748;42.632;23.198;2022-12-16T09:04:27;91781.47;;;15.29;64.29
34506;BME280;20748;42.632;23.198;2022-12-16T09:07:18;91786.06;;;15.32;65.00
34506;BME280;20748;42.632;23.198;2022-12-16T09:10:08;91791.63;;;15.43;63.46
34506;BME280;20748;42.632;23.198;2022-12-16T09:13:05;91779.34;;;15.47;64.12
34506;BME280;20748;42.632;23.198;2022-12-16T09:15:57;91782.28;;;15.58;64.29
34506;BME280;20748;42.632;23.198;2022-12-16T09:18:51;91773.59;;;15.70;63.15
34506;BME280;20748;42.632;23.198;2022-12-16T09:21:41;91778.78;;;15.82;63.61
34506;BME280;20748;42.632;23.198;2022-12-16T09:24:34;91765.50;;;15.91;61.62
34506;BME280;20748;42.632;23.198;2022-12-16T09:27:27;91766.13;;;16.01;62.23
34506;BME280;20748;42.632;23.198;2022-12-16T09:30:18;91772.16;;;16.17;60.06
34506;BME280;20748;42.632;23.198;2022-12-16T09:33:09;91767.59;;;16.30;60.38
34506;BME280;20748;42.632;23.198;2022-12-16T09:35:59;91769.22;;;16.35;59.49
34506;BME280;20748;42.632;23.198;2022-12-16T09:38:50;91782.13;;;16.40;58.88
34506;BME280;20748;42.632;23.198;2022-12-16T09:41:54;91762.50;;;16.37;59.01
34506;BME280;20748;42.632;23.198;2022-12-16T09:45:10;91765.06;;;16.50;60.04
34506;BME280;20748;42.632;23.198;2022-12-16T09:48:10;91762.41;;;16.66;58.47
34506;BME280;20748;42.632;23.198;2022-12-16T09:51:03;91752.38;;;16.72;58.79
34506;BME280;20748;42.632;23.198;2022-12-16T09:53:55;91767.59;;;16.78;57.72
34506;BME280;20748;42.632;23.198;2022-12-16T09:56:47;91764.34;;;16.85;57.05
34506;BME280;20748;42.632;23.198;2022-12-16T09:59:40;91760.53;;;16.83;56.69
34506;BME280;20748;42.632;23.198;2022-12-16T10:02:31;91765.59;;;16.91;57.21
34506;BME280;20748;42.632;23.198;2022-12-16T10:05:31;91770.69;;;17.00;57.29
34506;BME280;20748;42.632;23.198;2022-12-16T10:08:32;91775.88;;;16.97;56.77
34506;BME280;20748;42.632;23.198;2022-12-16T10:11:34;91784.13;;;16.95;57.02
34506;BME280;20748;42.632;23.198;2022-12-16T10:14:35;91783.78;;;16.97;57.56
34506;BME280;20748;42.632;23.198;2022-12-16T10:17:27;91783.88;;;17.00;58.03
34506;BME280;20748;42.632;23.198;2022-12-16T10:20:28;91771.38;;;16.97;58.85
34506;BME280;20748;42.632;23.198;2022-12-16T10:23:24;91779.47;;;16.88;57.25
34506;BME280;20748;42.632;23.198;2022-12-16T10:26:19;91764.19;;;16.78;58.55
34506;BME280;20748;42.632;23.198;2022-12-16T10:29:17;91756.50;;;16.89;58.55
34506;BME280;20748;42.632;23.198;2022-12-16T10:32:14;91760.53;;;16.83;57.61
34506;BME280;20748;42.632;23.198;2022-12-16T10:35:17;91743.50;;;16.96;57.94
34506;BME280;20748;42.632;23.198;2022-12-16T10:38:14;91741.59;;;17.13;57.47
34506;BME280;20748;42.632;23.198;2022-12-16T10:41:08;91758.34;;;17.21;57.13
34506;BME280;20748;42.632;23.198;2022-12-16T10:44:02;91747.38;;;17.18;56.87
34506;BME280;20748;42.632;23.198;2022-12-16T10:46:55;91757.41;;;17.29;56.18
34506;BME280;20748;42.632;23.198;2022-12-16T10:49:46;91755.66;;;17.37;56.27
34506;BME280;20748;42.632;23.198;2022-12-16T10:52:43;91747.63;;;17.49;56.63
34506;BME280;20748;42.632;23.198;2022-12-16T10:55:45;91752.59;;;17.54;56.75
34506;BME280;20748;42.632;23.198;2022-12-16T10:58:45;91730.75;;;17.54;55.11
34506;BME280;20748;42.632;23.198;2022-12-16T11:01:37;91756.16;;;17.62;55.32
34506;BME280;20748;42.632;23.198;2022-12-16T11:04:30;91755.59;;;17.73;56.40
34506;BME280;20748;42.632;23.198;2022-12-16T11:07:27;91765.78;;;17.94;57.02
34506;BME280;20748;42.632;23.198;2022-12-16T11:10:30;91756.13;;;18.02;56.32
34506;BME280;20748;42.632;23.198;2022-12-16T11:13:36;91757.22;;;18.01;55.02
34506;BME280;20748;42.632;23.198;2022-12-16T11:16:28;91751.88;;;18.17;55.19
34506;BME280;20748;42.632;23.198;2022-12-16T11:19:20;91749.25;;;17.97;55.05
34506;BME280;20748;42.632;23.198;2022-12-16T11:22:13;91749.38;;;18.04;56.42
34506;BME280;20748;42.632;23.198;2022-12-16T11:25:05;91738.25;;;17.95;55.65
34506;BME280;20748;42.632;23.198;2022-12-16T11:28:02;91754.66;;;18.04;56.36
34506;BME280;20748;42.632;23.198;2022-12-16T11:30:56;91746.75;;;18.04;55.00
34506;BME280;20748;42.632;23.198;2022-12-16T11:33:48;91743.81;;;17.90;54.75
34506;BME280;20748;42.632;23.198;2022-12-16T11:36:54;91734.28;;;17.81;55.99
34506;BME280;20748;42.632;23.198;2022-12-16T11:39:52;91754.66;;;17.84;56.49
34506;BME280;20748;42.632;23.198;2022-12-16T11:42:44;91750.09;;;17.81;56.58
34506;BME280;20748;42.632;23.198;2022-12-16T11:45:45;91721.34;;;17.76;56.36
34506;BME280;20748;42.632;23.198;2022-12-16T11:48:41;91728.75;;;17.67;57.24
34506;BME280;20748;42.632;23.198;2022-12-16T11:51:34;91726.22;;;17.74;56.85
34506;BME280;20748;42.632;23.198;2022-12-16T11:54:53;91725.06;;;17.71;56.61
34506;BME280;20748;42.632;23.198;2022-12-16T11:57:46;91715.13;;;17.45;56.42
34506;BME280;20748;42.632;23.198;2022-12-16T12:00:47;91706.38;;;17.41;56.47
34506;BME280;20748;42.632;23.198;2022-12-16T12:03:44;91703.25;;;17.55;57.15
34506;BME280;20748;42.632;23.198;2022-12-16T12:06:47;91708.94;;;17.57;57.12
34506;BME280;20748;42.632;23.198;2022-12-16T12:09:47;91708.25;;;17.60;56.94
34506;BME280;20748;42.632;23.198;2022-12-16T12:12:46;91706.88;;;17.47;57.08
34506;BME280;20748;42.632;23.198;2022-12-16T12:15:43;91706.69;;;17.55;57.01
34506;BME280;20748;42.632;23.198;2022-12-16T12:18:44;91697.66;;;17.56;56.49
34506;BME280;20748;42.632;23.198;2022-12-16T12:21:45;91700.81;;;17.66;56.33
34506;BME280;20748;42.632;23.198;2022-12-16T12:24:42;91689.72;;;17.56;55.97
34506;BME280;20748;42.632;23.198;2022-12-16T12:27:42;91692.47;;;17.40;56.38
34506;BME280;20748;42.632;23.198;2022-12-16T12:30:41;91691.59;;;17.56;57.27
34506;BME280;20748;42.632;23.198;2022-12-16T12:33:47;91686.66;;;17.54;56.86
34506;BME280;20748;42.632;23.198;2022-12-16T12:36:47;91694.88;;;17.49;55.86
34506;BME280;20748;42.632;23.198;2022-12-16T12:39:44;91693.00;;;17.50;56.48
34506;BME280;20748;42.632;23.198;2022-12-16T12:42:39;91678.63;;;17.47;56.39
34506;BME280;20748;42.632;23.198;2022-12-16T12:45:44;91694.88;;;17.29;56.28
34506;BME280;20748;42.632;23.198;2022-12-16T12:48:41;91692.94;;;17.26;56.49
34506;BME280;20748;42.632;23.198;2022-12-16T12:51:39;91694.38;;;17.43;56.59
34506;BME280;20748;42.632;23.198;2022-12-16T12:54:42;91698.53;;;17.44;56.19
34506;BME280;20748;42.632;23.198;2022-12-16T12:57:34;91709.53;;;17.47;56.59
34506;BME280;20748;42.632;23.198;2022-12-16T13:00:31;91702.28;;;17.43;57.20
34506;BME280;20748;42.632;23.198;2022-12-16T13:03:41;91698.13;;;17.42;57.25
34506;BME280;20748;42.632;23.198;2022-12-16T13:06:36;91693.22;;;17.41;57.42
34506;BME280;20748;42.632;23.198;2022-12-16T13:09:31;91691.56;;;17.33;57.16
34506;BME280;20748;42.632;23.198;2022-12-16T13:12:28;91684.94;;;17.42;57.53
34506;BME280;20748;42.632;23.198;2022-12-16T13:15:32;91691.13;;;17.30;57.24
34506;BME280;20748;42.632;23.198;2022-12-16T13:18:28;91688.41;;;17.27;58.21
34506;BME280;20748;42.632;23.198;2022-12-16T13:21:46;91699.88;;;17.15;57.97
34506;BME280;20748;42.632;23.198;2022-12-16T13:24:41;91699.72;;;17.08;58.00
34506;BME280;20748;42.632;23.198;2022-12-16T13:27:48;91706.53;;;17.09;58.65
34506;BME280;20748;42.632;23.198;2022-12-16T13:30:40;91705.06;;;17.11;58.19
34506;BME280;20748;42.632;23.198;2022-12-16T13:33:53;91723.16;;;17.13;58.13
34506;BME280;20748;42.632;23.198;2022-12-16T13:36:53;91713.59;;;17.04;58.56
34506;BME280;20748;42.632;23.198;2022-12-16T13:39:59;91726.78;;;16.88;59.30
34506;BME280;20748;42.632;23.198;2022-12-16T13:42:53;91724.91;;;16.89;58.42
34506;BME280;20748;42.632;23.198;2022-12-16T13:46:14;91727.97;;;16.91;59.56
34506;BME280;20748;42.632;23.198;2022-12-16T13:52:36;91727.50;;;16.69;59.65
34506;BME280;20748;42.632;23.198;2022-12-16T13:55:29;91748.03;;;16.80;59.02
34506;BME280;20748;42.632;23.198;2022-12-16T13:58:30;91744.91;;;16.74;59.56
34506;BME280;20748;42.632;23.198;2022-12-16T14:01:28;91753.56;;;16.74;60.50
34506;BME280;20748;42.632;23.198;2022-12-16T14:04:26;91752.03;;;16.57;60.58
34506;BME280;20748;42.632;23.198;2022-12-16T14:07:17;91741.63;;;16.61;60.38
34506;BME280;20748;42.632;23.198;2022-12-16T14:10:23;91761.06;;;16.56;60.36
34506;BME280;20748;42.632;23.198;2022-12-16T14:13:18;91753.06;;;16.53;60.22
34506;BME280;20748;42.632;23.198;2022-12-16T14:16:14;91758.34;;;16.53;60.88
34506;BME280;20748;42.632;23.198;2022-12-16T14:19:20;91770.41;;;16.37;61.01
34506;BME280;20748;42.632;23.198;2022-12-16T14:22:25;91768.78;;;16.33;61.18
34506;BME280;20748;42.632;23.198;2022-12-16T14:25:20;91768.47;;;16.34;61.16
34506;BME280;20748;42.632;23.198;2022-12-16T14:28:20;91758.00;;;16.22;61.20
34506;BME280;20748;42.632;23.198;2022-12-16T14:31:15;91765.06;;;16.34;60.96
34506;BME280;20748;42.632;23.198;2022-12-16T14:34:12;91762.25;;;16.27;61.40
34506;BME280;20748;42.632;23.198;2022-12-16T14:37:10;91781.78;;;16.26;60.87
34506;BME280;20748;42.632;23.198;2022-12-16T14:40:02;91767.75;;;16.21;61.42
34506;BME280;20748;42.632;23.198;2022-12-16T14:42:54;91763.16;;;16.18;61.11
34506;BME280;20748;42.632;23.198;2022-12-16T14:45:48;91777.59;;;16.08;60.82